Time;durP1;ratioP1;P1;durP2;ratioP2;P2;SDS_P1;SDS_P2;PMS_P1;PMS_P2;Temp;Humidity;BMP_temperature;BMP_pressure;BME280_temperature;BME280_humidity;BME280_pressure;Samples;Min_cycle;Max_cycle;Signal;HPM_P1;HPM_P2
2022/02/27 00:01:50;;;;;;;39.28;17.58;;;;;;;2.01;100.00;103156.28;5254895;28;20043;-72
2022/02/27 00:04:21;;;;;;;34.10;16.90;;;;;;;1.83;100.00;103134.13;5261441;28;20033;-72
2022/02/27 00:06:52;;;;;;;36.53;18.27;;;;;;;1.89;100.00;103152.13;5258546;28;20024;-73
2022/02/27 00:09:23;;;;;;;34.35;17.00;;;;;;;1.87;100.00;103146.97;5259502;28;20037;-72
2022/02/27 00:11:56;;;;;;;33.90;16.15;;;;;;;1.88;100.00;103148.69;5258687;28;20021;-72
2022/02/27 00:14:27;;;;;;;34.53;17.17;;;;;;;1.85;100.00;103146.13;5255432;28;20639;-72
2022/02/27 00:16:58;;;;;;;35.05;18.08;;;;;;;1.95;100.00;103149.47;5256140;28;20023;-72
2022/02/27 00:19:30;;;;;;;36.95;17.60;;;;;;;1.83;100.00;103152.22;5258820;28;20079;-72
2022/02/27 00:22:02;;;;;;;33.78;16.02;;;;;;;1.78;100.00;103148.78;5254184;28;20028;-72
2022/02/27 00:24:33;;;;;;;31.23;15.75;;;;;;;1.76;100.00;103154.00;5259247;28;20055;-72
2022/02/27 00:27:05;;;;;;;31.77;15.63;;;;;;;1.74;100.00;103136.78;5258925;28;20562;-72
2022/02/27 00:29:36;;;;;;;26.58;15.45;;;;;;;1.72;100.00;103149.72;5259266;28;20085;-72
2022/02/27 00:32:08;;;;;;;30.55;14.65;;;;;;;1.83;100.00;103147.03;5259996;28;20063;-72
2022/02/27 00:34:39;;;;;;;32.38;15.25;;;;;;;1.76;100.00;103150.56;5257922;28;20035;-72
2022/02/27 00:37:10;;;;;;;33.10;15.05;;;;;;;1.76;100.00;103135.06;5259283;28;20041;-73
2022/02/27 00:39:41;;;;;;;30.90;15.60;;;;;;;1.77;100.00;103144.50;5264110;28;20035;-72
2022/02/27 00:42:13;;;;;;;29.98;13.88;;;;;;;1.81;100.00;103141.00;5260186;28;20040;-72
2022/02/27 00:44:44;;;;;;;27.42;13.80;;;;;;;1.78;100.00;103138.47;5259170;28;20495;-72
2022/02/27 00:47:15;;;;;;;29.00;14.07;;;;;;;1.76;100.00;103145.41;5255762;28;20070;-72
2022/02/27 00:49:47;;;;;;;26.75;14.98;;;;;;;1.67;100.00;103133.44;5259578;28;20542;-72
2022/02/27 00:52:22;;;;;;;28.67;13.75;;;;;;;1.73;100.00;103141.09;5258574;28;20742;-72
2022/02/27 00:54:53;;;;;;;28.95;14.50;;;;;;;1.74;100.00;103142.81;5256038;28;20028;-72
2022/02/27 00:57:25;;;;;;;28.05;13.02;;;;;;;1.76;100.00;103140.22;5256617;28;20027;-73
2022/02/27 00:59:57;;;;;;;35.35;12.57;;;;;;;1.80;100.00;103145.34;5253467;28;20029;-72
2022/02/27 01:02:28;;;;;;;28.43;12.07;;;;;;;1.79;100.00;103138.47;5255423;28;20196;-72
2022/02/27 01:05:00;;;;;;;24.55;11.98;;;;;;;1.76;100.00;103137.63;5255343;28;20082;-72
2022/02/27 01:07:31;;;;;;;27.20;11.95;;;;;;;1.81;100.00;103136.69;5257239;28;20471;-73
2022/02/27 01:10:04;;;;;;;26.08;11.90;;;;;;;1.73;100.00;103138.53;5257902;28;20713;-72
2022/02/27 01:12:36;;;;;;;25.13;11.00;;;;;;;1.75;100.00;103138.53;5257233;28;20028;-72
2022/02/27 01:15:08;;;;;;;21.38;11.73;;;;;;;1.70;100.00;103142.00;5256006;28;20025;-72
2022/02/27 01:17:40;;;;;;;23.15;11.75;;;;;;;1.72;100.00;103130.78;5256236;28;20509;-72
2022/02/27 01:20:12;;;;;;;25.60;10.43;;;;;;;1.64;100.00;103130.88;5258077;28;20029;-72
2022/02/27 01:22:43;;;;;;;22.40;11.13;;;;;;;1.63;100.00;103131.72;5256656;28;20031;-72
2022/02/27 01:25:14;;;;;;;22.77;11.60;;;;;;;1.60;100.00;103130.06;5256884;28;20095;-72
2022/02/27 01:27:45;;;;;;;23.88;10.98;;;;;;;1.58;100.00;103136.09;5255782;28;20020;-72
2022/02/27 01:30:17;;;;;;;25.45;11.18;;;;;;;1.56;100.00;103133.53;5259580;28;20032;-72
2022/02/27 01:32:48;;;;;;;22.73;11.10;;;;;;;1.50;100.00;103127.56;5254343;28;20394;-73
2022/02/27 01:35:19;;;;;;;25.98;10.35;;;;;;;1.45;100.00;103123.31;5259002;28;20032;-72
2022/02/27 01:37:51;;;;;;;20.50;9.93;;;;;;;1.43;100.00;103119.88;5253155;28;20512;-72
2022/02/27 01:40:23;;;;;;;18.52;9.65;;;;;;;1.40;100.00;103119.06;5257963;28;20115;-72
2022/02/27 01:42:54;;;;;;;25.23;10.27;;;;;;;1.44;100.00;103131.09;5255360;28;20028;-73
2022/02/27 01:45:26;;;;;;;20.13;10.15;;;;;;;1.35;100.00;103126.84;5256143;28;20282;-72
2022/02/27 01:47:57;;;;;;;21.77;9.63;;;;;;;1.39;100.00;103125.09;5257125;28;20025;-72
2022/02/27 01:50:28;;;;;;;14.52;9.00;;;;;;;1.32;100.00;103132.03;5258217;28;20128;-72
2022/02/27 01:53:00;;;;;;;19.85;9.85;;;;;;;1.27;100.00;103128.66;5258008;28;20033;-72
2022/02/27 01:55:31;;;;;;;22.50;8.57;;;;;;;1.27;100.00;103131.22;5259609;28;20051;-72
2022/02/27 01:58:02;;;;;;;20.10;9.45;;;;;;;1.17;100.00;103127.88;5257040;28;20013;-72
2022/02/27 02:00:34;;;;;;;21.27;9.80;;;;;;;1.10;100.00;103125.34;5242784;28;20032;-73
2022/02/27 02:03:05;;;;;;;24.58;9.43;;;;;;;1.27;100.00;103130.38;5256081;28;20504;-72
2022/02/27 02:05:36;;;;;;;19.80;9.88;;;;;;;1.13;100.00;103133.94;5252399;28;20024;-72
2022/02/27 02:08:08;;;;;;;20.85;9.18;;;;;;;1.27;100.00;103133.81;5262016;28;20028;-72
2022/02/27 02:10:41;;;;;;;19.77;9.15;;;;;;;1.20;100.00;103127.84;5256255;28;20023;-73
2022/02/27 02:13:12;;;;;;;21.25;9.27;;;;;;;1.13;100.00;103122.75;5257535;28;20838;-73
2022/02/27 02:15:43;;;;;;;16.60;9.07;;;;;;;1.04;100.00;103128.00;5254423;28;20028;-72
2022/02/27 02:18:15;;;;;;;20.90;8.43;;;;;;;1.05;100.00;103125.41;5258346;28;20021;-72
2022/02/27 02:20:46;;;;;;;21.05;8.32;;;;;;;0.97;100.00;103134.94;5258533;28;20051;-72
2022/02/27 02:23:17;;;;;;;15.93;9.25;;;;;;;0.96;100.00;103117.75;5253638;28;20041;-72
2022/02/27 02:25:48;;;;;;;22.63;10.23;;;;;;;0.95;100.00;103116.91;5256403;28;20028;-73
2022/02/27 02:28:21;;;;;;;18.52;8.70;;;;;;;1.00;100.00;103128.91;5254145;28;20033;-72
2022/02/27 02:30:52;;;;;;;24.75;9.80;;;;;;;0.95;100.00;103121.22;5250792;28;20574;-72
2022/02/27 02:33:37;;;;;;;17.60;9.00;;;;;;;1.09;100.00;103116.75;5251981;28;20059;-72
2022/02/27 02:36:08;;;;;;;20.05;8.68;;;;;;;0.95;100.00;103116.91;5255411;28;20037;-72
2022/02/27 02:38:40;;;;;;;24.80;9.48;;;;;;;0.90;100.00;103104.88;5254248;28;20151;-72
2022/02/27 02:41:12;;;;;;;19.35;8.93;;;;;;;0.86;100.00;103106.63;5253782;28;20119;-72
2022/02/27 02:43:46;;;;;;;16.30;8.38;;;;;;;0.90;100.00;103102.28;5256115;28;20584;-72
2022/02/27 02:46:18;;;;;;;20.85;8.52;;;;;;;0.86;100.00;103114.38;5256705;28;20035;-72
2022/02/27 02:48:49;;;;;;;18.88;8.18;;;;;;;0.94;100.00;103103.97;5255111;28;20025;-72
2022/02/27 02:51:20;;;;;;;18.45;7.78;;;;;;;0.88;100.00;103098.88;5252960;28;20517;-72
2022/02/27 02:53:52;;;;;;;19.92;9.80;;;;;;;0.82;100.00;103088.59;5258767;28;20036;-72
2022/02/27 02:56:23;;;;;;;19.83;9.02;;;;;;;0.80;100.00;103105.84;5255084;28;20025;-72
2022/02/27 02:58:54;;;;;;;16.05;8.10;;;;;;;0.81;100.00;103099.81;5256809;28;21225;-72
2022/02/27 03:01:26;;;;;;;15.07;8.15;;;;;;;0.73;100.00;103094.69;5251660;28;20020;-72
2022/02/27 03:03:58;;;;;;;16.90;7.95;;;;;;;0.75;100.00;103095.53;5251683;28;20472;-72
2022/02/27 03:06:30;;;;;;;17.77;7.63;;;;;;;0.70;100.00;103100.72;5255290;28;20108;-72
2022/02/27 03:09:02;;;;;;;20.55;8.27;;;;;;;0.72;100.00;103103.31;5256584;28;20040;-72
2022/02/27 03:11:33;;;;;;;21.65;8.85;;;;;;;0.71;100.00;103096.44;5256605;28;20397;-72
2022/02/27 03:14:04;;;;;;;17.98;8.02;;;;;;;0.71;100.00;103099.00;5257037;28;20032;-72
2022/02/27 03:16:36;;;;;;;19.25;8.20;;;;;;;0.67;100.00;103095.59;5256364;28;20459;-72
2022/02/27 03:19:07;;;;;;;14.63;8.27;;;;;;;0.66;100.00;103095.63;5257719;28;20024;-72
2022/02/27 03:21:38;;;;;;;19.13;8.07;;;;;;;0.60;100.00;103090.47;5255152;28;20041;-72
2022/02/27 03:24:10;;;;;;;15.13;7.15;;;;;;;0.63;100.00;103082.72;5248616;28;20047;-72
2022/02/27 03:26:42;;;;;;;19.30;8.18;;;;;;;0.61;100.00;103085.34;5260583;28;20548;-72
2022/02/27 03:29:13;;;;;;;18.73;6.85;;;;;;;0.57;100.00;103083.66;5264328;28;20055;-72
2022/02/27 03:31:44;;;;;;;14.88;7.20;;;;;;;0.60;100.00;103086.19;5256458;28;20024;-72
2022/02/27 03:34:15;;;;;;;21.05;7.45;;;;;;;0.57;100.00;103073.34;5252460;28;20111;-72
2022/02/27 03:36:47;;;;;;;21.98;7.88;;;;;;;0.63;100.00;103086.16;5256703;28;20041;-73
2022/02/27 03:39:18;;;;;;;17.08;7.35;;;;;;;0.63;100.00;103082.72;5258316;28;20024;-72
2022/02/27 03:41:49;;;;;;;17.52;7.20;;;;;;;0.61;100.00;103077.59;5256338;28;20033;-72
2022/02/27 03:44:21;;;;;;;16.10;6.03;;;;;;;0.61;100.00;103077.59;5255190;28;20033;-72
2022/02/27 03:46:52;;;;;;;17.25;5.80;;;;;;;0.66;100.00;103077.56;5260455;28;20025;-72
2022/02/27 03:49:24;;;;;;;13.15;5.97;;;;;;;0.67;100.00;103077.53;5260070;28;20090;-72
2022/02/27 03:51:55;;;;;;;15.20;6.50;;;;;;;0.64;100.00;103074.13;5257565;28;20111;-72
2022/02/27 03:54:27;;;;;;;16.83;6.65;;;;;;;0.42;100.00;103065.69;5260262;28;20024;-72
2022/02/27 03:56:58;;;;;;;15.38;6.15;;;;;;;0.38;100.00;103067.44;5261451;28;20025;-72
2022/02/27 03:59:29;;;;;;;16.60;6.40;;;;;;;0.45;100.00;103073.38;5260618;28;20029;-73
2022/02/27 04:02:01;;;;;;;15.27;6.30;;;;;;;0.37;100.00;103080.31;5257088;28;20185;-72
2022/02/27 04:04:32;;;;;;;13.02;5.28;;;;;;;0.41;100.00;103067.41;5261660;28;20526;-72
2022/02/27 04:07:03;;;;;;;14.85;5.95;;;;;;;0.41;100.00;103074.28;5259010;28;20029;-72
2022/02/27 04:09:35;;;;;;;19.20;6.55;;;;;;;0.33;100.00;103064.00;5260473;28;20470;-72
2022/02/27 04:12:06;;;;;;;13.85;6.22;;;;;;;0.25;100.00;103055.47;5258216;28;20028;-72
2022/02/27 04:14:38;;;;;;;13.65;5.30;;;;;;;0.34;100.00;103070.91;5261873;28;20478;-72
2022/02/27 04:17:09;;;;;;;14.98;6.07;;;;;;;0.27;100.00;103079.53;5261959;28;20016;-72
2022/02/27 04:19:40;;;;;;;11.73;5.38;;;;;;;0.28;100.00;103077.81;5260373;28;20478;-72
2022/02/27 04:22:11;;;;;;;14.82;5.30;;;;;;;0.18;100.00;103074.41;5258997;28;20029;-72
2022/02/27 04:24:43;;;;;;;10.32;4.50;;;;;;;0.20;100.00;103073.56;5258107;28;20116;-72
2022/02/27 04:27:14;;;;;;;13.05;5.80;;;;;;;0.16;100.00;103068.44;5261274;28;20078;-72
2022/02/27 04:29:45;;;;;;;16.30;5.50;;;;;;;0.08;100.00;103062.47;5260699;28;20029;-72
2022/02/27 04:32:17;;;;;;;13.70;5.18;;;;;;;0.05;100.00;103065.91;5262109;28;20486;-72
2022/02/27 04:34:48;;;;;;;14.88;5.53;;;;;;;-0.07;100.00;103035.91;5255025;28;20025;-72
2022/02/27 04:37:19;;;;;;;12.32;5.03;;;;;;;0.03;100.00;103065.03;5261157;28;20133;-72
2022/02/27 04:39:50;;;;;;;10.93;5.07;;;;;;;0.02;100.00;103062.50;5266275;28;20105;-72
2022/02/27 04:42:22;;;;;;;13.52;5.28;;;;;;;0.03;100.00;103064.19;5256574;28;20033;-72
2022/02/27 04:44:54;;;;;;;15.95;5.13;;;;;;;-0.03;100.00;103067.69;5258583;28;20056;-72
2022/02/27 04:47:26;;;;;;;17.02;5.45;;;;;;;-0.10;100.00;103058.25;5261026;28;20135;-72
2022/02/27 04:49:57;;;;;;;15.52;5.93;;;;;;;-0.11;100.00;103066.88;5261573;28;20032;-72
2022/02/27 04:52:28;;;;;;;14.45;5.38;;;;;;;-0.15;100.00;103071.16;5256501;28;20115;-72
2022/02/27 04:54:59;;;;;;;12.18;4.65;;;;;;;-0.18;100.00;103066.03;5258765;28;20024;-72
2022/02/27 04:57:32;;;;;;;12.07;4.68;;;;;;;-0.15;100.00;103070.28;5256004;28;20388;-72
2022/02/27 05:00:07;;;;;;;12.65;5.50;;;;;;;-0.19;100.00;103071.16;5257144;28;20034;-72
2022/02/27 05:02:38;;;;;;;17.17;5.32;;;;;;;-0.21;100.00;103060.88;5253917;28;20037;-72
2022/02/27 05:05:09;;;;;;;20.85;6.18;;;;;;;-0.25;100.00;103057.47;5257584;28;20050;-72
2022/02/27 05:07:41;;;;;;;12.07;5.30;;;;;;;-0.17;100.00;103067.72;5255717;28;20040;-72
2022/02/27 05:10:12;;;;;;;15.38;5.55;;;;;;;-0.21;100.00;103060.88;5259104;28;20028;-72
2022/02/27 05:12:43;;;;;;;12.68;6.05;;;;;;;-0.27;100.00;103059.16;5257291;28;20211;-72
2022/02/27 05:15:16;;;;;;;15.02;5.85;;;;;;;-0.25;100.00;103056.59;5259257;28;20057;-72
2022/02/27 05:17:47;;;;;;;11.75;5.57;;;;;;;-0.33;100.00;103054.06;5259120;28;20039;-72
2022/02/27 05:20:18;;;;;;;14.35;5.72;;;;;;;-0.33;100.00;103050.63;5253581;28;20025;-72
2022/02/27 05:22:50;;;;;;;14.15;5.85;;;;;;;-0.33;100.00;103058.34;5250005;28;20025;-72
2022/02/27 05:25:22;;;;;;;14.50;5.22;;;;;;;-0.32;100.00;103058.34;5262340;28;20125;-72
2022/02/27 05:27:54;;;;;;;15.27;5.45;;;;;;;-0.37;100.00;103049.78;5259973;28;20050;-72
2022/02/27 05:30:26;;;;;;;11.07;5.07;;;;;;;-0.36;100.00;103059.22;5261259;28;20381;-72
2022/02/27 05:32:57;;;;;;;12.40;5.22;;;;;;;-0.30;100.00;103069.50;5272778;28;20044;-72
2022/02/27 05:35:28;;;;;;;14.18;5.28;;;;;;;-0.36;100.00;103056.63;5259030;28;20040;-72
2022/02/27 05:37:59;;;;;;;10.18;5.45;;;;;;;-0.39;100.00;103059.22;5265041;28;20079;-72
2022/02/27 05:40:31;;;;;;;9.30;5.13;;;;;;;-0.43;100.00;103060.09;5257237;28;20028;-72
2022/02/27 05:43:02;;;;;;;13.73;5.97;;;;;;;-0.41;100.00;103055.81;5255613;28;20072;-72
2022/02/27 05:45:34;;;;;;;14.35;5.90;;;;;;;-0.41;100.00;103048.09;5258474;28;20028;-71
2022/02/27 05:48:05;;;;;;;12.18;5.45;;;;;;;-0.52;100.00;103044.69;5257590;28;20367;-72
2022/02/27 05:50:36;;;;;;;15.48;6.13;;;;;;;-0.43;100.00;103062.66;5257338;28;20470;-72
2022/02/27 05:53:08;;;;;;;13.98;5.25;;;;;;;-0.40;100.00;103059.25;5257710;28;20028;-71
2022/02/27 05:55:39;;;;;;;12.32;5.55;;;;;;;-0.41;100.00;103058.38;5258402;28;20029;-72
2022/02/27 05:58:10;;;;;;;15.02;5.50;;;;;;;-0.46;100.00;103060.09;5258380;28;20558;-71
2022/02/27 06:00:42;;;;;;;12.85;5.13;;;;;;;-0.43;100.00;103056.66;5259252;28;20051;-71
2022/02/27 06:03:13;;;;;;;10.45;5.30;;;;;;;-0.62;100.00;103036.13;5255042;28;20056;-72
2022/02/27 06:05:45;;;;;;;13.50;5.55;;;;;;;-0.44;100.00;103050.66;5260900;28;20028;-72
2022/02/27 06:08:16;;;;;;;10.30;4.50;;;;;;;-0.49;100.00;103065.28;5258850;28;20070;-72
2022/02/27 06:10:48;;;;;;;11.80;5.22;;;;;;;-0.47;100.00;103057.53;5259577;28;20036;-71
2022/02/27 06:13:19;;;;;;;10.73;4.60;;;;;;;-0.53;100.00;103053.25;5255768;28;20064;-72
2022/02/27 06:15:50;;;;;;;14.90;5.22;;;;;;;-0.48;100.00;103061.84;5259870;28;20831;-72
2022/02/27 06:18:21;;;;;;;14.95;4.68;;;;;;;-0.42;100.00;103066.94;5257291;28;20032;-72
2022/02/27 06:20:53;;;;;;;15.75;5.25;;;;;;;-0.51;100.00;103070.41;5255148;28;20139;-71
2022/02/27 06:23:25;;;;;;;18.17;4.55;;;;;;;-0.52;100.00;103070.44;5256068;28;20032;-72
2022/02/27 06:25:56;;;;;;;12.85;4.47;;;;;;;-0.63;100.00;103061.88;5262566;28;20020;-71
2022/02/27 06:28:27;;;;;;;13.15;5.00;;;;;;;-0.54;100.00;103059.28;5258682;28;20029;-72
2022/02/27 06:30:58;;;;;;;16.88;4.38;;;;;;;-0.62;100.00;103055.88;5255261;28;20222;-71
2022/02/27 06:33:30;;;;;;;13.30;4.78;;;;;;;-0.65;100.00;103045.56;5252445;28;20063;-72
2022/02/27 06:36:01;;;;;;;15.30;5.25;;;;;;;-0.57;100.00;103052.44;5253932;28;20064;-72
2022/02/27 06:38:34;;;;;;;13.52;5.00;;;;;;;-0.56;100.00;103054.13;5255783;28;20071;-72
2022/02/27 06:41:06;;;;;;;11.05;4.60;;;;;;;-0.52;100.00;103053.25;5257247;28;20175;-71
2022/02/27 06:43:37;;;;;;;10.38;4.90;;;;;;;-0.47;100.00;103054.97;5256043;28;20025;-71
2022/02/27 06:46:09;;;;;;;13.80;5.25;;;;;;;-0.40;100.00;103065.25;5260391;28;20025;-71
2022/02/27 06:48:40;;;;;;;12.45;5.40;;;;;;;-0.34;100.00;103061.78;5260919;28;20024;-71
2022/02/27 06:51:12;;;;;;;12.75;5.18;;;;;;;-0.28;100.00;103070.34;5251691;28;20597;-72
2022/02/27 06:53:43;;;;;;;14.23;5.40;;;;;;;-0.24;100.00;103063.47;5256964;28;20036;-72
2022/02/27 06:56:14;;;;;;;12.60;4.35;;;;;;;-0.20;100.00;103070.31;5254635;28;20025;-71
2022/02/27 06:58:46;;;;;;;13.25;4.93;;;;;;;-0.11;100.00;103075.44;5252737;28;20066;-72
2022/02/27 07:01:18;;;;;;;11.95;4.35;;;;;;;-0.08;100.00;103075.41;5249132;28;20025;-71
2022/02/27 07:03:49;;;;;;;9.32;4.43;;;;;;;0.01;100.00;103074.53;5246732;28;20590;-71
2022/02/27 07:06:21;;;;;;;14.10;4.75;;;;;;;0.07;100.00;103077.06;5256351;28;20032;-72
2022/02/27 07:08:52;;;;;;;12.52;3.97;;;;;;;0.16;100.00;103071.00;5254443;28;20029;-71
2022/02/27 07:11:23;;;;;;;12.55;4.80;;;;;;;0.26;100.00;103069.22;5249699;28;20074;-72
2022/02/27 07:13:55;;;;;;;14.32;4.03;;;;;;;0.32;100.00;103071.78;5251670;28;20028;-71
2022/02/27 07:16:26;;;;;;;11.13;3.95;;;;;;;0.28;100.00;103062.34;5251717;28;20103;-71
2022/02/27 07:19:00;;;;;;;11.30;4.25;;;;;;;0.42;100.00;103063.97;5252917;28;20794;-72
2022/02/27 07:21:32;;;;;;;16.92;4.95;;;;;;;0.44;100.00;103066.53;5259752;28;20525;-72
2022/02/27 07:24:03;;;;;;;12.70;4.18;;;;;;;0.55;100.00;103064.72;5261005;28;20036;-72
2022/02/27 07:26:35;;;;;;;12.60;3.90;;;;;;;0.62;100.00;103060.38;5254888;28;20298;-72
2022/02/27 07:29:08;;;;;;;10.20;3.63;;;;;;;0.70;100.00;103059.47;5256571;28;20839;-72
2022/02/27 07:31:39;;;;;;;12.45;4.55;;;;;;;0.78;100.00;103067.13;5255299;28;20078;-72
2022/02/27 07:34:12;;;;;;;11.13;4.05;;;;;;;0.88;100.00;103057.59;5258513;28;20029;-72
2022/02/27 07:36:44;;;;;;;12.02;3.75;;;;;;;0.91;100.00;103054.97;5259915;28;20048;-73
2022/02/27 07:39:15;;;;;;;8.98;3.55;;;;;;;0.97;100.00;103062.66;5259639;28;20384;-72
2022/02/27 07:41:47;;;;;;;12.13;4.47;;;;;;;1.02;100.00;103060.88;5260779;28;20039;-72
2022/02/27 07:44:18;;;;;;;12.00;4.07;;;;;;;1.10;100.00;103053.97;5259139;28;20099;-72
2022/02/27 07:46:50;;;;;;;9.73;4.45;;;;;;;1.15;100.00;103059.91;5257525;28;20044;-72
2022/02/27 07:49:21;;;;;;;11.05;3.67;;;;;;;1.33;100.00;103065.78;5259101;28;20047;-72
2022/02/27 07:51:53;;;;;;;8.27;3.85;;;;;;;1.46;100.00;103059.59;5260013;28;20040;-72
2022/02/27 07:54:24;;;;;;;9.57;3.30;;;;;;;1.57;100.00;103060.31;5261244;28;20036;-72
2022/02/27 07:56:56;;;;;;;8.20;3.42;;;;;;;1.67;100.00;103066.25;5259906;28;20078;-72
2022/02/27 07:59:27;;;;;;;12.50;3.75;;;;;;;1.81;100.00;103064.34;5257726;28;20039;-71
2022/02/27 08:01:58;;;;;;;10.77;3.58;;;;;;;1.88;100.00;103067.69;5258633;28;20067;-71
2022/02/27 08:04:30;;;;;;;10.63;3.72;;;;;;;2.02;100.00;103060.63;5255803;28;20513;-72
2022/02/27 08:07:03;;;;;;;14.80;4.93;;;;;;;2.09;100.00;103072.59;5259791;28;20058;-72
2022/02/27 08:09:34;;;;;;;9.60;3.80;;;;;;;2.15;100.00;103064.75;5259082;28;20457;-72
2022/02/27 08:12:06;;;;;;;12.07;4.57;;;;;;;2.27;100.00;103068.03;5253697;28;20028;-72
2022/02/27 08:14:37;;;;;;;12.38;5.13;;;;;;;2.34;100.00;103065.34;5258238;28;20060;-72
2022/02/27 08:17:08;;;;;;;10.38;4.03;;;;;;;2.44;100.00;103072.09;5259708;28;20049;-72
2022/02/27 08:19:40;;;;;;;9.88;4.80;;;;;;;2.54;100.00;103067.66;5258423;28;20444;-73
2022/02/27 08:22:11;;;;;;;10.57;4.13;;;;;;;2.65;100.00;103063.16;5257325;28;20025;-73
2022/02/27 08:24:42;;;;;;;13.23;4.60;;;;;;;2.71;100.00;103067.38;5253598;28;20036;-72
2022/02/27 08:27:14;;;;;;;12.52;5.03;;;;;;;2.78;100.00;103066.38;5246706;28;20032;-72
2022/02/27 08:29:45;;;;;;;11.82;4.28;;;;;;;2.91;100.00;103072.19;5263413;28;20429;-72
2022/02/27 08:32:18;;;;;;;9.00;4.30;;;;;;;2.99;100.00;103075.50;5255513;28;20033;-72
2022/02/27 08:34:49;;;;;;;12.55;3.90;;;;;;;3.03;100.00;103063.38;5251993;28;20029;-72
2022/02/27 08:37:21;;;;;;;11.20;3.83;;;;;;;3.06;100.00;103058.13;5259895;28;20417;-72
2022/02/27 08:39:53;;;;;;;9.52;3.80;;;;;;;3.15;100.00;103070.94;5258697;28;20056;-72
2022/02/27 08:42:28;;;;;;;8.68;3.90;;;;;;;3.19;100.00;103067.41;5251869;28;20504;-72
2022/02/27 08:44:59;;;;;;;8.20;3.88;;;;;;;3.28;100.00;103079.34;5255013;28;20075;-72
2022/02/27 08:47:31;;;;;;;12.80;3.65;;;;;;;3.39;100.00;103082.56;5256328;28;20033;-72
2022/02/27 08:50:03;;;;;;;12.70;3.47;;;;;;;3.46;100.00;103080.72;5261914;28;20055;-72
2022/02/27 08:52:34;;;;;;;9.87;3.63;;;;;;;3.50;100.00;103072.88;5255559;28;20476;-72
2022/02/27 08:55:07;;;;;;;9.32;3.92;;;;;;;3.54;100.00;103068.47;5256469;28;20028;-72
2022/02/27 08:57:39;;;;;;;9.02;3.88;;;;;;;3.64;100.00;103078.63;5256517;28;20944;-72
2022/02/27 09:00:12;;;;;;;15.65;4.40;;;;;;;3.64;100.00;103083.81;5256134;28;20033;-72
2022/02/27 09:02:44;;;;;;;10.02;3.50;;;;;;;3.72;100.00;103078.47;5251156;28;20115;-72
2022/02/27 09:05:15;;;;;;;11.27;4.07;;;;;;;3.82;100.00;103079.13;5260741;28;20481;-72
2022/02/27 09:07:47;;;;;;;10.65;3.92;;;;;;;3.86;100.00;103078.19;5257334;28;20090;-72
2022/02/27 09:10:18;;;;;;;10.85;4.07;;;;;;;3.90;100.00;103079.81;5252036;28;20072;-72
2022/02/27 09:12:49;;;;;;;13.13;3.85;;;;;;;3.95;100.00;103071.97;5256336;28;20111;-73
2022/02/27 09:15:21;;;;;;;9.18;3.97;;;;;;;4.05;100.00;103079.53;5254773;28;20033;-72
2022/02/27 09:17:52;;;;;;;9.68;4.03;;;;;;;4.14;100.00;103076.72;5257520;28;20029;-72
2022/02/27 09:20:23;;;;;;;11.45;3.65;;;;;;;4.21;100.00;103072.25;5256232;28;20107;-72
2022/02/27 09:22:54;;;;;;;12.25;3.60;;;;;;;4.25;100.00;103080.81;5253796;28;20028;-72
2022/02/27 09:25:26;;;;;;;10.90;4.45;;;;;;;4.36;100.00;103081.44;5256401;28;20025;-72
2022/02/27 09:27:57;;;;;;;7.95;3.55;;;;;;;4.35;100.00;103072.78;5257554;28;20773;-72
2022/02/27 09:30:28;;;;;;;9.30;4.00;;;;;;;4.53;100.00;103068.06;5254771;28;20464;-72
2022/02/27 09:32:59;;;;;;;9.93;3.38;;;;;;;4.52;100.00;103072.41;5254904;28;20032;-73
2022/02/27 09:35:31;;;;;;;8.27;3.83;;;;;;;4.60;100.00;103072.22;5253983;28;20090;-72
2022/02/27 09:38:02;;;;;;;6.57;3.78;;;;;;;4.75;100.00;103077.03;5254199;28;20098;-72
2022/02/27 09:40:33;;;;;;;8.93;3.80;;;;;;;4.79;100.00;103076.06;5252673;28;20025;-73
2022/02/27 09:43:05;;;;;;;8.73;3.80;;;;;;;4.86;100.00;103067.22;5248214;28;20024;-72
2022/02/27 09:45:36;;;;;;;9.10;3.75;;;;;;;4.95;100.00;103060.09;5255060;28;20731;-73
2022/02/27 09:48:08;;;;;;;8.52;3.88;;;;;;;5.13;100.00;103062.22;5253392;28;20154;-73
2022/02/27 09:50:41;;;;;;;10.93;3.88;;;;;;;5.16;100.00;103064.75;5256802;28;20081;-73
2022/02/27 09:53:12;;;;;;;9.27;3.65;;;;;;;5.24;100.00;103055.00;5254828;28;20485;-73
2022/02/27 09:55:44;;;;;;;9.95;3.50;;;;;;;5.34;100.00;103058.16;5251883;28;20119;-73
2022/02/27 09:58:15;;;;;;;8.57;3.92;;;;;;;5.48;100.00;103056.06;5255640;28;20507;-73
2022/02/27 10:00:46;;;;;;;8.43;3.60;;;;;;;5.52;100.00;103057.66;5258538;28;20480;-73
2022/02/27 10:03:25;;;;;;;9.20;4.05;;;;;;;5.71;100.00;103059.75;5253009;28;20508;-73
2022/02/27 10:06:08;;;;;;;6.75;3.53;;;;;;;5.77;100.00;103054.38;5256567;28;20739;-73
2022/02/27 10:08:46;;;;;;;7.10;3.00;;;;;;;5.91;100.00;103048.75;5259415;28;20040;-73
2022/02/27 10:11:18;;;;;;;9.15;3.53;;;;;;;5.93;100.00;103054.81;5258348;28;20363;-73
2022/02/27 10:13:53;;;;;;;9.67;3.77;;;;;;;6.06;100.00;103058.72;5254872;28;20071;-73
2022/02/27 10:16:26;;;;;;;8.50;3.47;;;;;;;6.15;100.00;103048.06;5256490;28;20505;-73
2022/02/27 10:19:00;;;;;;;7.70;3.63;;;;;;;6.25;100.00;103039.06;5256992;28;20698;-73
2022/02/27 10:21:41;;;;;;;6.95;3.70;;;;;;;6.40;100.00;103036.84;5254304;28;20413;-74
2022/02/27 10:24:16;;;;;;;7.85;3.70;;;;;;;6.70;100.00;103043.66;5256743;28;20032;-74
2022/02/27 10:26:50;;;;;;;7.10;3.83;;;;;;;6.92;100.00;103037.75;5257316;28;20063;-73
2022/02/27 10:29:24;;;;;;;8.25;3.28;;;;;;;6.96;100.00;103040.19;5258009;28;20442;-73
2022/02/27 10:31:57;;;;;;;7.70;3.58;;;;;;;6.98;100.00;103046.22;5256540;28;20774;-73
2022/02/27 10:34:32;;;;;;;5.78;2.97;;;;;;;7.04;100.00;103029.50;5252537;28;20033;-73
2022/02/27 10:37:08;;;;;;;5.88;3.35;;;;;;;6.86;100.00;103033.59;5248947;28;20528;-74
2022/02/27 10:39:46;;;;;;;6.40;3.15;;;;;;;6.99;100.00;103019.22;5250946;28;20033;-73
2022/02/27 10:42:29;;;;;;;8.55;3.60;;;;;;;7.31;100.00;103038.09;5253139;28;20047;-73
2022/02/27 10:45:05;;;;;;;7.35;3.65;;;;;;;7.36;100.00;103035.34;5253763;28;20082;-74
2022/02/27 10:47:37;;;;;;;6.75;2.83;;;;;;;7.25;100.00;103043.53;5248537;28;20115;-74
2022/02/27 10:50:11;;;;;;;8.95;3.92;;;;;;;7.42;100.00;103020.28;5256371;28;20032;-73
2022/02/27 10:52:46;;;;;;;6.20;3.20;;;;;;;7.46;100.00;103021.03;5250505;28;20059;-73
2022/02/27 10:55:17;;;;;;;6.72;3.13;;;;;;;7.59;100.00;103029.28;5252032;28;20043;-74
2022/02/27 10:57:50;;;;;;;11.60;3.65;;;;;;;7.74;100.00;103028.69;5251829;28;20029;-74
2022/02/27 11:00:30;;;;;;;6.43;2.85;;;;;;;7.67;100.00;103033.28;5253992;28;20040;-73
2022/02/27 11:03:03;;;;;;;6.70;3.00;;;;;;;7.62;100.00;103016.13;5253838;28;20045;-73
2022/02/27 11:05:36;;;;;;;7.97;3.33;;;;;;;7.76;100.00;103021.66;5256006;28;20035;-74
2022/02/27 11:08:10;;;;;;;8.68;2.80;;;;;;;7.72;100.00;103020.06;5254606;28;20032;-73
2022/02/27 11:10:42;;;;;;;7.63;2.85;;;;;;;7.83;100.00;103017.91;5255371;28;20032;-74
2022/02/27 11:13:13;;;;;;;7.38;3.28;;;;;;;7.95;100.00;103006.13;5248638;28;20024;-74
2022/02/27 11:15:45;;;;;;;8.07;3.30;;;;;;;8.00;100.00;103007.66;5248102;28;20405;-74
2022/02/27 11:18:17;;;;;;;8.02;3.17;;;;;;;8.12;100.00;103010.72;5254858;28;20024;-74
2022/02/27 11:20:48;;;;;;;5.60;2.65;;;;;;;8.45;100.00;103000.69;5245421;28;20063;-74
2022/02/27 11:23:20;;;;;;;8.02;3.30;;;;;;;8.56;100.00;103003.72;5253924;28;20037;-74
2022/02/27 11:25:51;;;;;;;7.57;3.55;;;;;;;8.58;100.00;103001.03;5252236;28;20044;-74
2022/02/27 11:28:24;;;;;;;6.65;2.72;;;;;;;8.69;100.00;102989.19;5252273;28;20059;-73
2022/02/27 11:31:01;;;;;;;4.22;2.67;;;;;;;8.93;100.00;102979.44;5253579;28;20056;-74
2022/02/27 11:33:32;;;;;;;5.82;2.78;;;;;;;8.94;100.00;102972.44;5253730;28;20288;-73
2022/02/27 11:36:18;;;;;;;5.78;2.90;;;;;;;9.05;100.00;102967.59;5255714;28;20414;-74
2022/02/27 11:39:04;;;;;;;4.60;2.47;;;;;;;9.12;95.02;102970.78;5255187;28;20024;-75